Germantown Hills, Illinois
Current Conditions -  °F | °C
As of 9:55 AM on Sunday 23 Nov 2014 (Local Time) from KC75 Reporting Station
Broken Clouds Broken Clouds  
Wind Chill: 51°   Ceiling: 1400
Heat Index: 51°   Visibility: 10mi
Dew Point: 46°   Wind: 14mph
Humidity: 80%   Direction: 180°S
Pressure: 29.65"   Gusts: 17mph
Location:  40.7942°N, 89.4075°W
Report Text: KC75 231555Z AUTO 18012G15KT 10SM BKN014 BKN019 11/08 A2965 RMK AO2 T01080075
Loading
Personal Weather Stations






























Interactive Weather Map New forecast layout! Learn more

10-Day Weather Forecast

Advertisements
Track Severe Weather on mobile